Time;durP1;ratioP1;P1;durP2;ratioP2;P2;SDS_P1;SDS_P2;PMS_P1;PMS_P2;Temp;Humidity;BMP_temperature;BMP_pressure;BME280_temperature;BME280_humidity;BME280_pressure;Samples;Min_cycle;Max_cycle;Signal;HPM_P1;HPM_P2
2021/09/29 00:01:01;;;;;;;17.75;8.55;;;;;;;;;;5016705;28;20155;-70
2021/09/29 00:03:27;;;;;;;12.70;8.50;;;;;;;;;;5044103;28;20183;-70
2021/09/29 00:05:53;;;;;;;14.35;8.32;;;;;;;;;;5032510;28;20356;-70
2021/09/29 00:08:19;;;;;;;17.35;8.55;;;;;;;;;;5037123;28;20068;-70
2021/09/29 00:10:45;;;;;;;13.13;8.90;;;;;;;;;;5039573;28;20112;-70
2021/09/29 00:13:11;;;;;;;15.02;8.85;;;;;;;;;;5045438;28;20037;-70
2021/09/29 00:15:38;;;;;;;18.38;8.80;;;;;;;;;;5034076;28;20576;-70
2021/09/29 00:18:04;;;;;;;17.20;9.65;;;;;;;;;;5043028;28;20045;-70
2021/09/29 00:20:30;;;;;;;16.95;9.27;;;;;;;;;;5038842;28;20489;-70
2021/09/29 00:22:56;;;;;;;16.90;9.52;;;;;;;;;;5044805;28;20118;-70
2021/09/29 00:25:22;;;;;;;19.67;10.38;;;;;;;;;;5039569;28;20102;-70
2021/09/29 00:27:48;;;;;;;17.20;10.27;;;;;;;;;;5036467;28;20372;-70
2021/09/29 00:30:15;;;;;;;17.00;10.65;;;;;;;;;;5046327;28;20048;-70
2021/09/29 00:32:42;;;;;;;16.23;9.25;;;;;;;;;;5038696;28;20127;-70
2021/09/29 00:35:09;;;;;;;16.77;8.45;;;;;;;;;;5043486;28;20048;-70
2021/09/29 00:37:35;;;;;;;13.93;8.65;;;;;;;;;;5035750;28;20046;-70
2021/09/29 00:40:01;;;;;;;14.88;8.93;;;;;;;;;;5045971;28;20184;-70
2021/09/29 00:42:27;;;;;;;17.65;9.50;;;;;;;;;;5016076;28;20053;-70
2021/09/29 00:44:53;;;;;;;11.07;8.27;;;;;;;;;;5026719;28;20103;-70
2021/09/29 00:47:20;;;;;;;15.13;8.23;;;;;;;;;;5036922;28;20092;-69
2021/09/29 00:49:46;;;;;;;14.27;8.25;;;;;;;;;;5028605;28;20120;-70
2021/09/29 00:52:13;;;;;;;14.65;7.47;;;;;;;;;;5031530;28;20049;-70
2021/09/29 00:54:39;;;;;;;13.52;7.82;;;;;;;;;;5043199;28;20076;-70
2021/09/29 00:57:05;;;;;;;15.35;7.40;;;;;;;;;;5038880;28;20049;-70
2021/09/29 00:59:31;;;;;;;11.88;6.45;;;;;;;;;;5037667;28;20072;-70
2021/09/29 01:01:57;;;;;;;13.13;7.20;;;;;;;;;;5038044;28;20043;-70
2021/09/29 01:04:25;;;;;;;16.92;6.88;;;;;;;;;;5042482;28;20083;-70
2021/09/29 01:07:03;;;;;;;11.65;7.18;;;;;;;;;;5045130;28;20063;-70
2021/09/29 01:09:32;;;;;;;14.85;6.93;;;;;;;;;;5034406;28;20068;-69
2021/09/29 01:12:06;;;;;;;9.88;6.68;;;;;;;;;;5028170;28;20481;-69
2021/09/29 01:14:38;;;;;;;12.55;7.20;;;;;;;;;;5036191;28;20424;-69
2021/09/29 01:17:05;;;;;;;12.00;6.10;;;;;;;;;;5036522;28;20063;-69
2021/09/29 01:19:40;;;;;;;13.43;6.35;;;;;;;;;;5036280;28;20061;-69
2021/09/29 01:22:20;;;;;;;14.20;6.78;;;;;;;;;;5038916;28;20041;-69
2021/09/29 01:24:56;;;;;;;13.85;6.43;;;;;;;;;;5037453;28;20037;-70
2021/09/29 01:27:23;;;;;;;14.25;6.00;;;;;;;;;;5038092;28;20037;-69
2021/09/29 01:29:50;;;;;;;12.23;5.80;;;;;;;;;;5028614;28;20052;-69
2021/09/29 01:32:17;;;;;;;10.85;5.32;;;;;;;;;;5038198;28;20750;-69
2021/09/29 01:34:44;;;;;;;9.80;5.20;;;;;;;;;;5031009;28;20057;-69
2021/09/29 01:37:11;;;;;;;12.32;5.57;;;;;;;;;;5037936;28;20049;-70
2021/09/29 01:39:37;;;;;;;12.13;5.32;;;;;;;;;;5033779;28;20516;-69
2021/09/29 01:42:04;;;;;;;9.07;5.22;;;;;;;;;;5035263;28;20566;-69
2021/09/29 01:44:31;;;;;;;10.00;6.03;;;;;;;;;;5031825;28;20052;-69
2021/09/29 01:46:58;;;;;;;10.40;5.53;;;;;;;;;;5036031;28;20667;-69
2021/09/29 01:49:28;;;;;;;11.20;4.97;;;;;;;;;;5031410;28;20817;-69
2021/09/29 01:51:55;;;;;;;9.90;4.85;;;;;;;;;;5037812;28;20040;-69
2021/09/29 01:54:24;;;;;;;11.70;5.47;;;;;;;;;;5033460;28;20131;-69
2021/09/29 01:56:51;;;;;;;14.60;6.03;;;;;;;;;;5033494;28;20087;-69
2021/09/29 01:59:17;;;;;;;12.48;5.47;;;;;;;;;;5030186;28;20083;-70
2021/09/29 02:01:43;;;;;;;16.05;6.13;;;;;;;;;;5035480;28;20571;-70
2021/09/29 02:04:10;;;;;;;13.32;5.90;;;;;;;;;;5019644;28;20037;-70
2021/09/29 02:06:45;;;;;;;11.60;5.72;;;;;;;;;;5031365;28;20044;-70
2021/09/29 02:09:12;;;;;;;9.80;5.53;;;;;;;;;;5035923;28;20149;-70
2021/09/29 02:11:38;;;;;;;12.30;5.53;;;;;;;;;;5028888;28;20523;-70
2021/09/29 02:14:04;;;;;;;13.95;5.53;;;;;;;;;;5035432;28;20045;-70
2021/09/29 02:16:30;;;;;;;10.52;4.57;;;;;;;;;;5031178;28;20053;-70
2021/09/29 02:18:56;;;;;;;12.45;4.85;;;;;;;;;;5037607;28;20049;-70
2021/09/29 02:21:23;;;;;;;12.13;5.25;;;;;;;;;;5031289;28;20060;-70
2021/09/29 02:23:49;;;;;;;10.85;4.55;;;;;;;;;;5038378;28;20037;-70
2021/09/29 02:26:15;;;;;;;12.60;4.63;;;;;;;;;;5009165;28;20052;-70
2021/09/29 02:28:41;;;;;;;9.48;4.95;;;;;;;;;;5041059;28;20243;-70
2021/09/29 02:31:07;;;;;;;15.05;4.85;;;;;;;;;;5040054;28;20049;-70
2021/09/29 02:33:33;;;;;;;10.98;4.43;;;;;;;;;;5044056;28;20087;-70
2021/09/29 02:35:59;;;;;;;9.68;4.55;;;;;;;;;;5036504;28;20436;-70
2021/09/29 02:38:25;;;;;;;11.00;4.72;;;;;;;;;;5038098;28;20124;-70
2021/09/29 02:40:51;;;;;;;13.65;5.03;;;;;;;;;;5035139;28;20064;-70
2021/09/29 02:43:17;;;;;;;10.32;4.70;;;;;;;;;;5037094;28;20036;-70
2021/09/29 02:45:45;;;;;;;12.63;5.28;;;;;;;;;;5034468;28;20133;-70
2021/09/29 02:48:12;;;;;;;12.90;5.43;;;;;;;;;;5028282;28;20494;-70
2021/09/29 02:50:38;;;;;;;10.85;4.60;;;;;;;;;;5036392;28;20344;-70
2021/09/29 02:53:04;;;;;;;12.05;5.15;;;;;;;;;;5035504;28;20106;-70
2021/09/29 02:55:31;;;;;;;11.02;4.88;;;;;;;;;;5033745;28;21521;-70
2021/09/29 02:57:57;;;;;;;10.60;5.38;;;;;;;;;;5008781;28;20084;-70
2021/09/29 03:00:23;;;;;;;11.43;5.03;;;;;;;;;;5021640;28;20060;-70
2021/09/29 03:02:49;;;;;;;10.38;5.40;;;;;;;;;;5036106;28;20132;-70
2021/09/29 03:05:15;;;;;;;7.63;5.18;;;;;;;;;;5031973;28;20606;-70
2021/09/29 03:07:41;;;;;;;9.32;4.50;;;;;;;;;;5029792;28;20529;-70
2021/09/29 03:10:07;;;;;;;11.02;5.55;;;;;;;;;;5036428;28;20569;-70
2021/09/29 03:12:33;;;;;;;13.10;5.32;;;;;;;;;;5036675;28;20041;-70
2021/09/29 03:14:59;;;;;;;13.45;6.07;;;;;;;;;;5045917;28;20057;-70
2021/09/29 03:17:25;;;;;;;10.68;5.13;;;;;;;;;;5033445;28;20051;-70
2021/09/29 03:19:51;;;;;;;11.73;5.07;;;;;;;;;;5042626;28;20044;-70
2021/09/29 03:22:17;;;;;;;11.52;4.97;;;;;;;;;;5043840;28;20029;-70
2021/09/29 03:24:44;;;;;;;11.27;5.63;;;;;;;;;;5034889;28;20047;-70
2021/09/29 03:27:10;;;;;;;14.30;5.93;;;;;;;;;;5040864;28;20530;-70
2021/09/29 03:29:36;;;;;;;14.77;5.43;;;;;;;;;;5039254;28;20057;-70
2021/09/29 03:32:03;;;;;;;13.07;5.50;;;;;;;;;;5045270;28;20041;-70
2021/09/29 03:34:29;;;;;;;11.38;5.40;;;;;;;;;;5036753;28;20044;-70
2021/09/29 03:36:55;;;;;;;10.70;5.43;;;;;;;;;;5027842;28;20049;-70
2021/09/29 03:39:21;;;;;;;14.57;5.95;;;;;;;;;;5042607;28;20067;-70
2021/09/29 03:41:48;;;;;;;12.38;6.25;;;;;;;;;;5038654;28;20060;-70
2021/09/29 03:44:14;;;;;;;12.63;5.38;;;;;;;;;;5038376;28;20111;-70
2021/09/29 03:46:40;;;;;;;11.43;5.82;;;;;;;;;;5046136;28;20037;-70
2021/09/29 03:49:06;;;;;;;12.73;5.90;;;;;;;;;;5042089;28;20068;-70
2021/09/29 03:51:32;;;;;;;11.48;5.78;;;;;;;;;;5043508;28;20048;-70
2021/09/29 03:53:58;;;;;;;11.68;5.95;;;;;;;;;;5038193;28;20114;-70
2021/09/29 03:56:25;;;;;;;13.60;6.00;;;;;;;;;;5044290;28;20110;-70
2021/09/29 03:58:51;;;;;;;10.30;5.70;;;;;;;;;;5036733;28;20084;-71
2021/09/29 04:01:19;;;;;;;10.25;5.40;;;;;;;;;;5029305;28;20068;-71
2021/09/29 04:03:45;;;;;;;13.77;6.43;;;;;;;;;;5047280;28;20037;-71
2021/09/29 04:06:11;;;;;;;15.25;5.72;;;;;;;;;;5034896;28;20506;-70
2021/09/29 04:08:37;;;;;;;12.43;5.68;;;;;;;;;;5046390;28;20037;-70
2021/09/29 04:11:06;;;;;;;14.07;5.45;;;;;;;;;;5040649;28;20090;-70
2021/09/29 04:13:32;;;;;;;12.88;6.00;;;;;;;;;;5039733;28;20055;-70
2021/09/29 04:15:59;;;;;;;11.30;5.93;;;;;;;;;;5019609;28;20147;-71
2021/09/29 04:18:26;;;;;;;15.55;6.45;;;;;;;;;;5030220;28;20052;-71
2021/09/29 04:20:52;;;;;;;13.70;5.75;;;;;;;;;;5035911;28;20045;-71
2021/09/29 04:23:18;;;;;;;9.90;5.95;;;;;;;;;;5043982;28;20060;-70
2021/09/29 04:25:45;;;;;;;12.70;6.45;;;;;;;;;;5036923;28;20493;-70
2021/09/29 04:28:11;;;;;;;13.60;5.63;;;;;;;;;;5039960;28;20091;-70
2021/09/29 04:30:37;;;;;;;14.13;6.55;;;;;;;;;;5036914;28;20116;-70
2021/09/29 04:33:03;;;;;;;14.15;6.90;;;;;;;;;;5041745;28;20083;-70
2021/09/29 04:35:29;;;;;;;9.75;6.30;;;;;;;;;;5033848;28;20052;-70
2021/09/29 04:37:55;;;;;;;10.18;6.72;;;;;;;;;;5040569;28;20045;-70
2021/09/29 04:40:21;;;;;;;11.13;7.13;;;;;;;;;;5041446;28;20060;-70
2021/09/29 04:42:48;;;;;;;11.88;7.10;;;;;;;;;;5036898;28;20056;-70
2021/09/29 04:45:14;;;;;;;13.63;6.70;;;;;;;;;;5038793;28;20087;-70
2021/09/29 04:47:40;;;;;;;12.43;7.30;;;;;;;;;;5040407;28;20055;-70
2021/09/29 04:50:06;;;;;;;12.88;7.38;;;;;;;;;;5039439;28;20064;-70
2021/09/29 04:52:33;;;;;;;19.45;7.82;;;;;;;;;;5036629;28;20124;-70
2021/09/29 04:54:59;;;;;;;13.80;7.75;;;;;;;;;;5044548;28;20128;-70
2021/09/29 04:57:25;;;;;;;14.45;7.85;;;;;;;;;;5037722;28;20571;-70
2021/09/29 04:59:51;;;;;;;15.82;7.35;;;;;;;;;;5041135;28;20048;-70
2021/09/29 05:02:19;;;;;;;16.70;7.95;;;;;;;;;;5039213;28;20128;-70
2021/09/29 05:04:45;;;;;;;12.98;6.70;;;;;;;;;;5027494;28;20049;-70
2021/09/29 05:07:18;;;;;;;12.10;6.60;;;;;;;;;;5034041;28;20049;-71
2021/09/29 05:09:45;;;;;;;13.55;7.47;;;;;;;;;;5045087;28;20730;-71
2021/09/29 05:12:40;;;;;;;17.58;7.95;;;;;;;;;;5040274;28;20047;-71
2021/09/29 05:15:07;;;;;;;15.02;7.05;;;;;;;;;;5041151;28;20049;-71
2021/09/29 05:17:33;;;;;;;14.40;7.45;;;;;;;;;;5037100;28;20040;-71
2021/09/29 05:19:59;;;;;;;12.55;7.75;;;;;;;;;;5042367;28;20044;-71
2021/09/29 05:22:25;;;;;;;14.48;8.07;;;;;;;;;;5033948;28;20164;-71
2021/09/29 05:24:51;;;;;;;15.32;7.15;;;;;;;;;;5040874;28;20052;-71
2021/09/29 05:27:17;;;;;;;16.30;7.97;;;;;;;;;;5021898;28;20044;-71
2021/09/29 05:29:47;;;;;;;12.13;7.07;;;;;;;;;;5044588;28;20215;-71
2021/09/29 05:32:13;;;;;;;13.88;7.93;;;;;;;;;;5045433;28;20044;-71
2021/09/29 05:34:39;;;;;;;14.88;7.60;;;;;;;;;;5032820;28;20124;-70
2021/09/29 05:37:05;;;;;;;14.77;7.90;;;;;;;;;;5043521;28;20486;-70
2021/09/29 05:39:31;;;;;;;14.95;7.40;;;;;;;;;;5035505;28;20045;-70
2021/09/29 05:41:58;;;;;;;13.52;7.93;;;;;;;;;;5038338;28;20072;-70
2021/09/29 05:44:24;;;;;;;10.57;7.07;;;;;;;;;;5036597;28;20037;-70
2021/09/29 05:46:50;;;;;;;13.00;7.70;;;;;;;;;;5029638;28;20053;-70
2021/09/29 05:49:16;;;;;;;16.20;7.45;;;;;;;;;;5038112;28;20045;-70
2021/09/29 05:51:45;;;;;;;11.70;7.68;;;;;;;;;;5040348;28;20068;-70
2021/09/29 05:54:11;;;;;;;12.15;6.50;;;;;;;;;;5037088;28;20071;-70
2021/09/29 05:56:37;;;;;;;13.73;7.00;;;;;;;;;;5047756;28;20053;-69
2021/09/29 05:59:03;;;;;;;14.43;7.35;;;;;;;;;;5036396;28;20048;-69
2021/09/29 06:01:30;;;;;;;15.85;7.85;;;;;;;;;;5043664;28;20033;-69
2021/09/29 06:03:56;;;;;;;13.82;7.85;;;;;;;;;;5040906;28;20044;-70
2021/09/29 06:06:22;;;;;;;11.68;6.97;;;;;;;;;;5043849;28;20037;-70
2021/09/29 06:08:48;;;;;;;14.32;7.00;;;;;;;;;;5039891;28;20124;-70
2021/09/29 06:11:14;;;;;;;16.80;7.03;;;;;;;;;;5042461;28;20104;-70
2021/09/29 06:13:40;;;;;;;13.18;7.13;;;;;;;;;;5043082;28;20047;-70
2021/09/29 06:16:08;;;;;;;13.40;7.47;;;;;;;;;;5019703;28;20135;-70
2021/09/29 06:18:37;;;;;;;16.08;7.40;;;;;;;;;;5043154;28;20041;-70
2021/09/29 06:21:04;;;;;;;13.27;6.80;;;;;;;;;;5033427;28;20065;-70
2021/09/29 06:23:31;;;;;;;11.90;6.65;;;;;;;;;;5043918;28;20049;-70
2021/09/29 06:25:57;;;;;;;13.73;6.65;;;;;;;;;;5033341;28;20125;-70
2021/09/29 06:28:23;;;;;;;14.23;6.43;;;;;;;;;;5044503;28;20087;-71
2021/09/29 06:30:49;;;;;;;13.05;5.88;;;;;;;;;;5038194;28;20037;-71
2021/09/29 06:33:16;;;;;;;12.43;6.00;;;;;;;;;;5044311;28;20059;-71
2021/09/29 06:35:42;;;;;;;12.98;6.32;;;;;;;;;;5039117;28;20045;-71
2021/09/29 06:38:10;;;;;;;13.23;5.57;;;;;;;;;;5043405;28;20037;-71
2021/09/29 06:40:36;;;;;;;14.93;6.20;;;;;;;;;;5034761;28;20523;-71
2021/09/29 06:43:04;;;;;;;13.13;6.55;;;;;;;;;;5040283;28;20452;-71
2021/09/29 06:45:31;;;;;;;13.30;5.70;;;;;;;;;;5033482;28;20048;-71
2021/09/29 06:47:57;;;;;;;9.88;5.57;;;;;;;;;;5039680;28;20040;-72
2021/09/29 06:50:24;;;;;;;10.38;5.65;;;;;;;;;;5040582;28;20053;-71
2021/09/29 06:52:50;;;;;;;13.07;5.50;;;;;;;;;;5042560;28;20132;-71
2021/09/29 06:55:16;;;;;;;12.93;5.82;;;;;;;;;;5029637;28;20405;-71
2021/09/29 06:57:42;;;;;;;10.50;5.20;;;;;;;;;;5040047;28;20506;-70
2021/09/29 07:00:09;;;;;;;9.82;5.45;;;;;;;;;;5042369;28;20056;-70
2021/09/29 07:02:40;;;;;;;11.07;5.93;;;;;;;;;;5034395;28;20052;-70
2021/09/29 07:05:07;;;;;;;8.73;5.47;;;;;;;;;;5043571;28;20033;-70
2021/09/29 07:07:34;;;;;;;11.15;5.55;;;;;;;;;;5039633;28;20080;-71
2021/09/29 07:10:00;;;;;;;16.02;6.13;;;;;;;;;;5046972;28;20049;-71
2021/09/29 07:12:26;;;;;;;11.30;5.50;;;;;;;;;;5036702;28;20123;-71
2021/09/29 07:14:52;;;;;;;11.45;6.28;;;;;;;;;;5045682;28;20041;-71
2021/09/29 07:17:19;;;;;;;13.70;6.05;;;;;;;;;;5041476;28;20080;-71
2021/09/29 07:19:47;;;;;;;13.70;6.00;;;;;;;;;;5043905;28;20175;-71
2021/09/29 07:22:13;;;;;;;13.45;6.43;;;;;;;;;;5036561;28;20049;-71
2021/09/29 07:24:39;;;;;;;15.60;6.15;;;;;;;;;;5044646;28;20077;-71
2021/09/29 07:27:05;;;;;;;14.65;6.57;;;;;;;;;;5032383;28;20519;-70
2021/09/29 07:29:31;;;;;;;12.70;6.00;;;;;;;;;;5040185;28;20049;-69
2021/09/29 07:31:57;;;;;;;13.57;6.60;;;;;;;;;;5044216;28;20060;-70
2021/09/29 07:34:24;;;;;;;14.20;5.93;;;;;;;;;;5042375;28;20056;-71
2021/09/29 07:36:50;;;;;;;16.02;6.97;;;;;;;;;;5039528;28;20057;-71
2021/09/29 07:39:17;;;;;;;13.82;7.07;;;;;;;;;;5033355;28;20118;-71
2021/09/29 07:41:43;;;;;;;12.80;6.65;;;;;;;;;;5045068;28;20041;-71
2021/09/29 07:44:11;;;;;;;14.65;7.25;;;;;;;;;;5044236;28;20055;-71
2021/09/29 07:46:37;;;;;;;23.83;7.38;;;;;;;;;;5040141;28;20059;-70
2021/09/29 07:49:03;;;;;;;16.20;7.47;;;;;;;;;;5038236;28;20087;-70
2021/09/29 07:51:29;;;;;;;11.80;7.00;;;;;;;;;;5045621;28;20497;-70
2021/09/29 07:53:55;;;;;;;15.10;7.22;;;;;;;;;;5043047;28;20084;-70
2021/09/29 07:56:21;;;;;;;16.83;7.05;;;;;;;;;;5041920;28;20053;-70
2021/09/29 07:58:47;;;;;;;17.75;7.32;;;;;;;;;;5040432;28;20489;-70
2021/09/29 08:01:13;;;;;;;16.70;7.38;;;;;;;;;;5046862;28;20050;-69
2021/09/29 08:03:43;;;;;;;13.80;7.38;;;;;;;;;;5034746;28;20067;-68
2021/09/29 08:06:09;;;;;;;17.20;7.45;;;;;;;;;;5043940;28;20083;-69
2021/09/29 08:08:35;;;;;;;14.43;7.18;;;;;;;;;;5033385;28;20045;-69
2021/09/29 08:11:01;;;;;;;14.48;7.40;;;;;;;;;;5029791;28;20128;-68
2021/09/29 08:13:27;;;;;;;18.95;8.00;;;;;;;;;;5042930;28;20037;-68
2021/09/29 08:15:53;;;;;;;18.20;8.43;;;;;;;;;;5035597;28;20515;-68
2021/09/29 08:18:19;;;;;;;19.25;8.10;;;;;;;;;;5044139;28;20049;-68
2021/09/29 08:20:46;;;;;;;14.63;7.63;;;;;;;;;;5039976;28;20044;-68
2021/09/29 08:23:18;;;;;;;14.30;6.85;;;;;;;;;;5029245;28;20063;-68
2021/09/29 08:28:17;;;;;;;14.55;7.72;;;;;;;;;;5046679;28;20187;-67
2021/09/29 08:36:08;;;;;;;11.82;7.20;;;;;;;;;;5037673;28;19921;-68
2021/09/29 08:38:47;;;;;;;17.08;8.13;;;;;;;;;;5047724;28;20108;-68
2021/09/29 08:43:57;;;;;;;17.75;8.18;;;;;;;;;;5040440;28;20037;-68
2021/09/29 08:49:28;;;;;;;14.48;8.15;;;;;;;;;;5049420;28;20502;-68
2021/09/29 08:57:26;;;;;;;12.77;7.90;;;;;;;;;;5036622;28;20044;-67
2021/09/29 09:16:29;;;;;;;16.83;8.00;;;;;;;;;;5036559;28;20048;-64
2021/09/29 09:18:56;;;;;;;11.50;7.68;;;;;;;;;;5045278;28;20048;-64
2021/09/29 09:21:22;;;;;;;14.30;8.13;;;;;;;;;;5039527;28;20067;-64
2021/09/29 09:23:48;;;;;;;16.25;9.15;;;;;;;;;;5042820;28;20070;-64
2021/09/29 09:26:18;;;;;;;10.88;7.25;;;;;;;;;;5043482;28;20033;-64
2021/09/29 09:28:45;;;;;;;19.02;8.20;;;;;;;;;;5039042;28;20033;-64
2021/09/29 09:31:13;;;;;;;15.18;7.78;;;;;;;;;;5047369;28;20037;-64
2021/09/29 09:33:52;;;;;;;14.50;9.10;;;;;;;;;;5041113;28;20486;-64
2021/09/29 09:36:35;;;;;;;13.15;8.70;;;;;;;;;;5048591;28;20034;-64
2021/09/29 09:39:08;;;;;;;14.45;8.90;;;;;;;;;;5044320;28;20489;-64
2021/09/29 09:41:34;;;;;;;16.83;8.95;;;;;;;;;;5041821;28;20405;-64
2021/09/29 09:44:01;;;;;;;11.57;7.68;;;;;;;;;;5039572;28;20063;-64
2021/09/29 09:46:28;;;;;;;24.83;11.48;;;;;;;;;;5049374;28;20037;-64
2021/09/29 09:49:11;;;;;;;16.80;10.13;;;;;;;;;;5045171;28;20049;-64
2021/09/29 09:51:47;;;;;;;14.30;7.82;;;;;;;;;;5040817;28;20041;-65
2021/09/29 09:54:14;;;;;;;14.13;8.98;;;;;;;;;;5037570;28;20494;-65
2021/09/29 09:56:43;;;;;;;15.82;7.55;;;;;;;;;;5049781;28;20052;-65
2021/09/29 09:59:09;;;;;;;12.95;7.80;;;;;;;;;;5043702;28;20044;-65
2021/09/29 10:01:35;;;;;;;25.25;11.05;;;;;;;;;;5041054;28;20052;-65
2021/09/29 10:04:08;;;;;;;16.60;9.02;;;;;;;;;;5040289;28;20033;-65
2021/09/29 10:06:35;;;;;;;12.57;7.50;;;;;;;;;;5048287;28;20033;-64
2021/09/29 10:09:24;;;;;;;14.40;8.32;;;;;;;;;;5045972;28;20140;-65
2021/09/29 10:12:04;;;;;;;13.77;7.25;;;;;;;;;;5041084;28;20044;-64
2021/09/29 10:23:06;;;;;;;5.00;3.63;;;;;;;;;;5046527;28;20532;-64
2021/09/29 10:28:18;;;;;;;4.70;3.50;;;;;;;;;;5047423;28;20083;-64
2021/09/29 10:31:09;;;;;;;6.75;4.50;;;;;;;;;;5042190;28;20040;-65
2021/09/29 10:33:40;;;;;;;8.18;5.20;;;;;;;;;;5041680;28;20045;-65
2021/09/29 10:41:24;;;;;;;9.10;5.38;;;;;;;;;;5037782;28;20086;-65
2021/09/29 11:11:34;;;;;;;9.80;6.75;;;;;;;;;;5032702;28;20246;-65
2021/09/29 11:30:54;;;;;;;8.10;5.00;;;;;;;;;;5040500;28;20133;-65
2021/09/29 11:33:34;;;;;;;6.45;4.75;;;;;;;;;;5042280;28;20098;-65
2021/09/29 12:11:31;;;;;;;7.57;1.00;;;;;;;;;;5041524;28;20516;-64
2021/09/29 12:13:59;;;;;;;1.00;0.50;;;;;;;;;;5040400;28;20047;-64
2021/09/29 12:16:30;;;;;;;1.80;0.40;;;;;;;;;;5045209;28;20045;-65
2021/09/29 12:19:01;;;;;;;1.88;0.30;;;;;;;;;;5033257;28;20037;-65
2021/09/29 12:21:38;;;;;;;1.00;0.13;;;;;;;;;;5041051;28;20087;-65
2021/09/29 12:24:07;;;;;;;0.32;0.20;;;;;;;;;;5034757;28;20470;-64
2021/09/29 12:26:39;;;;;;;4.38;0.20;;;;;;;;;;5042761;28;20040;-65
2021/09/29 12:29:15;;;;;;;1.33;0.22;;;;;;;;;;5036764;28;20048;-65
2021/09/29 12:31:54;;;;;;;1.55;0.10;;;;;;;;;;5046099;28;20045;-65
2021/09/29 12:34:30;;;;;;;2.83;0.17;;;;;;;;;;5040266;28;20045;-65
2021/09/29 12:37:07;;;;;;;2.58;0.20;;;;;;;;;;5044905;28;20140;-65
2021/09/29 12:39:33;;;;;;;2.15;0.10;;;;;;;;;;5037183;28;20114;-65
2021/09/29 12:41:59;;;;;;;3.78;0.30;;;;;;;;;;5042368;28;20037;-65
2021/09/29 12:44:25;;;;;;;0.95;0.20;;;;;;;;;;5041216;28;20040;-65
2021/09/29 12:47:03;;;;;;;1.08;0.20;;;;;;;;;;5037579;28;20087;-65
2021/09/29 12:49:29;;;;;;;2.15;0.20;;;;;;;;;;5036571;28;20083;-65
2021/09/29 12:52:11;;;;;;;1.90;0.15;;;;;;;;;;5044918;28;20056;-65
2021/09/29 12:54:39;;;;;;;2.05;0.10;;;;;;;;;;5038565;28;20045;-65
2021/09/29 12:57:06;;;;;;;1.17;0.10;;;;;;;;;;5040483;28;20067;-65
2021/09/29 12:59:32;;;;;;;1.75;0.30;;;;;;;;;;5043361;28;20076;-65
2021/09/29 13:01:58;;;;;;;2.80;0.30;;;;;;;;;;5039465;28;20033;-65
2021/09/29 13:04:25;;;;;;;2.38;0.10;;;;;;;;;;5048045;28;20529;-65
2021/09/29 13:06:51;;;;;;;2.08;0.10;;;;;;;;;;5042418;28;20053;-65
2021/09/29 13:09:17;;;;;;;3.65;0.30;;;;;;;;;;5047876;28;20083;-64
2021/09/29 13:11:43;;;;;;;1.83;0.10;;;;;;;;;;5040153;28;20452;-65
2021/09/29 13:14:09;;;;;;;1.98;0.32;;;;;;;;;;5046805;28;20094;-64
2021/09/29 13:16:35;;;;;;;3.72;0.30;;;;;;;;;;5036291;28;20458;-64
2021/09/29 13:19:05;;;;;;;0.90;0.10;;;;;;;;;;5048692;28;20353;-64
2021/09/29 13:21:37;;;;;;;1.05;0.28;;;;;;;;;;5041107;28;20052;-64
2021/09/29 13:24:17;;;;;;;2.70;0.20;;;;;;;;;;5044103;28;20136;-64
2021/09/29 13:37:17;;;;;;;3.58;0.35;;;;;;;;;;5042727;28;20071;-64
2021/09/29 13:39:44;;;;;;;1.75;0.20;;;;;;;;;;5047304;28;20737;-65
2021/09/29 13:42:10;;;;;;;2.72;0.30;;;;;;;;;;5043159;28;20112;-65
2021/09/29 13:44:36;;;;;;;1.00;0.20;;;;;;;;;;5048814;28;20116;-66
2021/09/29 13:47:03;;;;;;;3.20;0.40;;;;;;;;;;5041015;28;20127;-66
2021/09/29 13:49:29;;;;;;;3.17;0.50;;;;;;;;;;5046285;28;20037;-66
2021/09/29 13:51:57;;;;;;;1.48;0.20;;;;;;;;;;5031018;28;20037;-66
2021/09/29 13:54:25;;;;;;;1.75;0.10;;;;;;;;;;5047572;28;20124;-66
2021/09/29 13:57:03;;;;;;;1.92;0.30;;;;;;;;;;5041222;28;20176;-66
2021/09/29 14:31:20;;;;;;;2.42;0.60;;;;;;;;;;5042950;28;20132;-67
2021/09/29 14:33:49;;;;;;;2.78;0.60;;;;;;;;;;5038990;28;20508;-67
2021/09/29 14:36:16;;;;;;;1.35;0.50;;;;;;;;;;5042232;28;20113;-67
2021/09/29 14:38:45;;;;;;;2.15;0.90;;;;;;;;;;5042931;28;20044;-67
2021/09/29 14:41:11;;;;;;;1.52;0.80;;;;;;;;;;5041780;28;20420;-67
2021/09/29 14:43:37;;;;;;;3.05;0.82;;;;;;;;;;5044622;28;20237;-67
2021/09/29 14:46:03;;;;;;;4.45;1.20;;;;;;;;;;5041243;28;20037;-67
2021/09/29 14:48:29;;;;;;;2.22;0.80;;;;;;;;;;5045286;28;20060;-67
2021/09/29 14:50:55;;;;;;;2.15;1.00;;;;;;;;;;5038140;28;20405;-67
2021/09/29 14:53:21;;;;;;;3.92;1.10;;;;;;;;;;5047858;28;20396;-66
2021/09/29 14:55:47;;;;;;;4.38;1.10;;;;;;;;;;5047287;28;20052;-67
2021/09/29 14:58:13;;;;;;;2.50;0.52;;;;;;;;;;5041930;28;20083;-66
2021/09/29 15:00:39;;;;;;;2.38;1.00;;;;;;;;;;5038160;28;20070;-66
2021/09/29 15:03:05;;;;;;;2.70;0.68;;;;;;;;;;5048637;28;20047;-66
2021/09/29 15:05:31;;;;;;;2.47;0.63;;;;;;;;;;5035748;28;20037;-66
2021/09/29 15:07:58;;;;;;;3.80;0.65;;;;;;;;;;5044413;28;20316;-66
2021/09/29 15:10:25;;;;;;;3.70;0.85;;;;;;;;;;5040827;28;20083;-66
2021/09/29 15:12:51;;;;;;;5.97;0.70;;;;;;;;;;5047094;28;20493;-66
2021/09/29 15:15:25;;;;;;;4.88;0.70;;;;;;;;;;5038533;28;20033;-66
2021/09/29 15:17:58;;;;;;;6.13;1.00;;;;;;;;;;5041650;28;20202;-66
2021/09/29 15:30:32;;;;;;;4.65;0.88;;;;;;;;;;5043249;28;20048;-65
2021/09/29 15:52:34;;;;;;;4.47;0.60;;;;;;;;;;5038269;28;20037;-65
2021/09/29 15:54:40;;;;;;;4.32;0.50;;;;;;;;;;5045762;28;20047;-64
2021/09/29 16:05:46;;;;;;;2.13;0.28;;;;;;;;;;5060872;28;20416;-64
2021/09/29 16:11:16;;;;;;;6.93;0.47;;;;;;;;;;5039409;28;20041;-64
2021/09/29 16:18:53;;;;;;;4.57;0.50;;;;;;;;;;5037876;28;20044;-64
2021/09/29 16:21:44;;;;;;;6.00;0.60;;;;;;;;;;5040473;28;20513;-64
2021/09/29 16:32:26;;;;;;;5.38;0.55;;;;;;;;;;5046155;28;20056;-65
2021/09/29 16:35:04;;;;;;;5.22;0.68;;;;;;;;;;5034378;28;20050;-65
2021/09/29 16:37:31;;;;;;;3.10;0.30;;;;;;;;;;5045110;28;20047;-65
2021/09/29 16:39:58;;;;;;;3.78;0.30;;;;;;;;;;5035023;28;20091;-65
2021/09/29 16:42:24;;;;;;;4.18;0.50;;;;;;;;;;5043049;28;20071;-66
2021/09/29 16:44:50;;;;;;;5.22;0.50;;;;;;;;;;5035769;28;20351;-65
2021/09/29 16:47:17;;;;;;;3.95;0.60;;;;;;;;;;5036275;28;20458;-65
2021/09/29 16:49:43;;;;;;;3.78;0.90;;;;;;;;;;5035205;28;20064;-65
2021/09/29 16:52:23;;;;;;;2.47;0.85;;;;;;;;;;5044104;28;20057;-65
2021/09/29 16:54:51;;;;;;;3.08;0.85;;;;;;;;;;5033039;28;20115;-65
2021/09/29 16:57:24;;;;;;;4.65;0.85;;;;;;;;;;5040869;28;20045;-64
2021/09/29 17:00:19;;;;;;;4.65;0.60;;;;;;;;;;5039207;28;20401;-64
2021/09/29 17:02:36;;;;;;;7.03;0.57;;;;;;;;;;5040804;28;20430;-64
2021/09/29 17:05:03;;;;;;;7.10;0.70;;;;;;;;;;5034701;28;20037;-64
2021/09/29 17:07:29;;;;;;;5.47;0.75;;;;;;;;;;5043611;28;20040;-64
2021/09/29 17:09:55;;;;;;;5.32;0.60;;;;;;;;;;5037792;28;20076;-64
2021/09/29 17:12:23;;;;;;;9.02;0.73;;;;;;;;;;5043354;28;20047;-64
2021/09/29 17:14:49;;;;;;;10.55;0.82;;;;;;;;;;5039727;28;20289;-64
2021/09/29 17:17:16;;;;;;;8.38;0.70;;;;;;;;;;5042807;28;20429;-64
2021/09/29 17:19:42;;;;;;;6.68;0.85;;;;;;;;;;5039042;28;20044;-64
2021/09/29 17:22:08;;;;;;;4.93;0.68;;;;;;;;;;5033851;28;20030;-64
2021/09/29 17:24:37;;;;;;;3.22;0.50;;;;;;;;;;5046368;28;20124;-64
2021/09/29 17:27:04;;;;;;;3.38;0.45;;;;;;;;;;5039562;28;20055;-64
2021/09/29 17:29:30;;;;;;;3.97;0.60;;;;;;;;;;5041135;28;20459;-64
2021/09/29 17:32:09;;;;;;;4.72;0.38;;;;;;;;;;5034444;28;20037;-64
2021/09/29 17:48:10;;;;;;;;;;;;;;;;;;5037200;28;22340;-65
2021/09/29 17:53:21;;;;;;;1.67;0.20;;;;;;;;;;5043478;28;20098;-65
2021/09/29 17:55:48;;;;;;;5.78;0.30;;;;;;;;;;5050442;28;20100;-65
2021/09/29 17:58:15;;;;;;;2.20;0.20;;;;;;;;;;5032464;28;20068;-65
2021/09/29 18:00:44;;;;;;;3.70;0.40;;;;;;;;;;5043781;28;20060;-65
2021/09/29 18:03:23;;;;;;;2.63;0.30;;;;;;;;;;5040839;28;20052;-65
2021/09/29 18:06:27;;;;;;;1.73;0.20;;;;;;;;;;5042356;28;20493;-65
2021/09/29 18:08:42;;;;;;;3.65;0.30;;;;;;;;;;5035636;28;20533;-65
2021/09/29 18:11:08;;;;;;;7.03;0.38;;;;;;;;;;5041719;28;20118;-65
2021/09/29 18:13:35;;;;;;;1.90;0.20;;;;;;;;;;5038118;28;20044;-66
2021/09/29 18:16:01;;;;;;;4.93;1.05;;;;;;;;;;5046016;28;20053;-66
2021/09/29 18:18:27;;;;;;;7.53;0.60;;;;;;;;;;5040686;28;20044;-65
2021/09/29 18:20:53;;;;;;;3.28;0.52;;;;;;;;;;5042624;28;20033;-66
2021/09/29 18:23:19;;;;;;;4.82;0.35;;;;;;;;;;5042787;28;20095;-66
2021/09/29 18:25:45;;;;;;;2.83;0.40;;;;;;;;;;5043927;28;20587;-66
2021/09/29 18:28:11;;;;;;;4.57;0.40;;;;;;;;;;5038020;28;20052;-66
2021/09/29 18:30:40;;;;;;;5.95;0.70;;;;;;;;;;5046839;28;20053;-65
2021/09/29 18:33:15;;;;;;;2.72;0.45;;;;;;;;;;5038197;28;20044;-66
2021/09/29 18:35:43;;;;;;;3.90;0.40;;;;;;;;;;5040957;28;20055;-66
2021/09/29 18:38:14;;;;;;;2.67;0.30;;;;;;;;;;5037591;28;20409;-65
2021/09/29 18:40:40;;;;;;;6.13;0.63;;;;;;;;;;5025315;28;20037;-66
2021/09/29 18:43:09;;;;;;;7.97;0.57;;;;;;;;;;5043287;28;20045;-66
2021/09/29 18:45:35;;;;;;;5.43;0.60;;;;;;;;;;5044662;28;20044;-66